Time;durP1;ratioP1;P1;durP2;ratioP2;P2;SDS_P1;SDS_P2;PMS_P1;PMS_P2;Temp;Humidity;BMP_temperature;BMP_pressure;BME280_temperature;BME280_humidity;BME280_pressure;Samples;Min_cycle;Max_cycle;Signal;HPM_P1;HPM_P2
2021/06/09 00:00:37;;;;;;;7.78;7.03;;;18.10;80.50;;;;;;5076365;28;20103;-73
2021/06/09 00:03:03;;;;;;;9.30;6.60;;;18.20;80.60;;;;;;5089805;28;20032;-73
2021/06/09 00:05:29;;;;;;;9.70;6.32;;;18.10;80.70;;;;;;5096665;28;20136;-73
2021/06/09 00:07:55;;;;;;;9.55;7.28;;;18.20;80.80;;;;;;5096526;28;20466;-73
2021/06/09 00:10:20;;;;;;;8.57;6.97;;;18.10;80.90;;;;;;5095266;28;20024;-72
2021/06/09 00:12:46;;;;;;;9.77;6.82;;;18.10;81.00;;;;;;5096460;28;20488;-73
2021/06/09 00:15:14;;;;;;;9.25;6.85;;;18.10;81.10;;;;;;5096830;28;20021;-73
2021/06/09 00:17:40;;;;;;;9.15;7.22;;;18.10;81.20;;;;;;5096348;28;20024;-73
2021/06/09 00:20:09;;;;;;;9.77;7.10;;;18.10;81.30;;;;;;5096111;28;20393;-73
2021/06/09 00:22:35;;;;;;;8.60;6.88;;;18.10;81.40;;;;;;5096197;28;20123;-73
2021/06/09 00:25:01;;;;;;;8.80;6.90;;;18.10;81.40;;;;;;5096761;28;20115;-73
2021/06/09 00:27:27;;;;;;;9.27;7.22;;;18.10;81.50;;;;;;5096280;28;20032;-73
2021/06/09 00:29:53;;;;;;;7.07;6.40;;;18.10;81.50;;;;;;5095885;28;20572;-73
2021/06/09 00:32:19;;;;;;;9.65;7.03;;;18.10;81.50;;;;;;5096644;28;20046;-73
2021/06/09 00:34:45;;;;;;;8.02;6.85;;;18.10;81.60;;;;;;5095968;28;20486;-73
2021/06/09 00:37:11;;;;;;;9.43;7.00;;;18.00;81.60;;;;;;5096424;28;20060;-72
2021/06/09 00:39:36;;;;;;;8.52;6.95;;;18.10;81.60;;;;;;5095844;28;20031;-73
2021/06/09 00:42:02;;;;;;;8.30;7.40;;;18.10;81.60;;;;;;5085194;28;20068;-73
2021/06/09 00:44:30;;;;;;;7.68;6.72;;;18.10;81.70;;;;;;5075829;28;20040;-72
2021/06/09 00:46:55;;;;;;;11.13;7.03;;;18.10;81.70;;;;;;5075708;28;20033;-73
2021/06/09 00:49:21;;;;;;;7.43;6.45;;;18.00;81.70;;;;;;5076849;28;20169;-73
2021/06/09 00:51:47;;;;;;;9.40;7.20;;;18.00;81.70;;;;;;5095761;28;20489;-73
2021/06/09 00:54:12;;;;;;;9.45;6.35;;;18.00;81.80;;;;;;5096171;28;20043;-73
2021/06/09 00:56:39;;;;;;;12.00;7.07;;;18.00;81.80;;;;;;5094866;28;20446;-73
2021/06/09 00:59:06;;;;;;;8.05;7.25;;;18.00;81.80;;;;;;5087797;28;20467;-72
2021/06/09 01:01:32;;;;;;;9.85;7.95;;;18.00;81.80;;;;;;5075343;28;20033;-72
2021/06/09 01:03:58;;;;;;;11.43;7.10;;;17.90;81.70;;;;;;5075299;28;20058;-73
2021/06/09 01:06:25;;;;;;;9.15;7.28;;;18.00;81.70;;;;;;5075185;28;20086;-73
2021/06/09 01:08:52;;;;;;;7.95;6.53;;;17.90;81.70;;;;;;5075206;28;20025;-73
2021/06/09 01:11:20;;;;;;;9.70;7.30;;;17.90;81.70;;;;;;5075371;28;20078;-72
2021/06/09 01:13:47;;;;;;;7.47;6.68;;;17.90;81.80;;;;;;5093314;28;20043;-73
2021/06/09 01:16:13;;;;;;;9.20;7.13;;;17.90;81.80;;;;;;5095776;28;20028;-73
2021/06/09 01:18:39;;;;;;;8.63;6.65;;;17.90;81.80;;;;;;5095239;28;20098;-73
2021/06/09 01:21:05;;;;;;;8.60;6.57;;;17.90;81.90;;;;;;5095183;28;20052;-73
2021/06/09 01:23:32;;;;;;;9.02;6.88;;;17.90;81.90;;;;;;5095141;28;20366;-73
2021/06/09 01:25:59;;;;;;;9.00;6.75;;;17.90;82.50;;;;;;5095265;28;20071;-73
2021/06/09 01:28:25;;;;;;;7.30;6.47;;;17.80;82.00;;;;;;5094830;28;20386;-73
2021/06/09 01:30:52;;;;;;;9.43;6.53;;;17.80;82.00;;;;;;5094747;28;20111;-73
2021/06/09 01:33:19;;;;;;;8.20;6.85;;;17.80;82.00;;;;;;5094979;28;20036;-73
2021/06/09 01:35:45;;;;;;;10.57;7.75;;;17.80;82.10;;;;;;5094875;28;20150;-73
2021/06/09 01:38:11;;;;;;;8.35;7.18;;;17.80;82.00;;;;;;5094763;28;20458;-73
2021/06/09 01:40:37;;;;;;;8.23;7.43;;;17.80;82.10;;;;;;5094578;28;20024;-73
2021/06/09 01:43:03;;;;;;;7.70;6.90;;;17.90;82.20;;;;;;5094689;28;20050;-72
2021/06/09 01:45:33;;;;;;;9.20;7.30;;;17.90;82.30;;;;;;5095082;28;20039;-72
2021/06/09 01:48:02;;;;;;;8.93;7.32;;;17.80;82.40;;;;;;5094638;28;20021;-73
2021/06/09 01:50:28;;;;;;;7.65;6.13;;;17.80;82.40;;;;;;5094534;28;20108;-72
2021/06/09 01:52:55;;;;;;;8.48;7.60;;;17.90;82.50;;;;;;5094775;28;20060;-73
2021/06/09 01:55:23;;;;;;;8.73;6.65;;;17.80;82.50;;;;;;5094528;28;20028;-73
2021/06/09 01:57:50;;;;;;;10.68;6.78;;;17.80;82.60;;;;;;5094714;28;20055;-73
2021/06/09 02:00:19;;;;;;;8.13;6.88;;;17.80;82.60;;;;;;5094788;28;20032;-72
2021/06/09 02:02:45;;;;;;;8.20;6.20;;;17.90;82.50;;;;;;5094245;28;20052;-73
2021/06/09 02:05:12;;;;;;;7.13;6.43;;;17.90;82.40;;;;;;5094587;28;20071;-73
2021/06/09 02:07:40;;;;;;;7.47;6.72;;;17.90;82.30;;;;;;5094172;28;20028;-72
2021/06/09 02:10:16;;;;;;;7.35;6.63;;;17.90;82.20;;;;;;5094602;28;20032;-73
2021/06/09 02:12:45;;;;;;;7.22;6.20;;;17.90;82.00;;;;;;5094413;28;20097;-73
2021/06/09 02:15:12;;;;;;;9.63;6.70;;;17.90;81.90;;;;;;5094155;28;20104;-73
2021/06/09 02:17:41;;;;;;;6.85;6.15;;;17.90;81.80;;;;;;5094053;28;20386;-73
2021/06/09 02:20:08;;;;;;;9.15;6.05;;;18.00;81.80;;;;;;5094240;28;20028;-73
2021/06/09 02:22:36;;;;;;;6.97;5.72;;;18.00;81.60;;;;;;5075396;28;20029;-73
2021/06/09 02:25:04;;;;;;;7.30;6.03;;;18.00;81.50;;;;;;5064558;28;20039;-73
2021/06/09 02:27:35;;;;;;;8.93;5.97;;;18.00;81.30;;;;;;5073827;28;20056;-73
2021/06/09 02:30:03;;;;;;;6.93;5.88;;;18.10;81.20;;;;;;5072468;28;20166;-72
2021/06/09 02:32:29;;;;;;;9.55;6.13;;;18.00;81.10;;;;;;5072425;28;20161;-73
2021/06/09 02:34:55;;;;;;;9.75;6.40;;;18.10;81.00;;;;;;5073834;28;20031;-73
2021/06/09 02:37:21;;;;;;;8.23;5.50;;;18.10;80.80;;;;;;5073628;28;20032;-73
2021/06/09 02:39:48;;;;;;;7.88;6.20;;;18.10;80.70;;;;;;5073558;28;20024;-73
2021/06/09 02:42:20;;;;;;;8.30;5.80;;;18.20;80.60;;;;;;5073477;28;20029;-73
2021/06/09 02:44:47;;;;;;;8.70;6.32;;;18.20;80.50;;;;;;5061059;28;20080;-73
2021/06/09 02:47:15;;;;;;;6.10;5.50;;;18.20;80.40;;;;;;5063388;28;20039;-73
2021/06/09 02:49:42;;;;;;;6.07;5.47;;;18.20;80.20;;;;;;5062174;28;20021;-74
2021/06/09 02:52:30;;;;;;;7.00;5.57;;;18.30;80.10;;;;;;5061342;28;20036;-73
2021/06/09 02:55:32;;;;;;;8.98;5.57;;;18.30;79.90;;;;;;5063775;28;20017;-73
2021/06/09 02:58:13;;;;;;;7.35;5.53;;;18.30;79.70;;;;;;5059621;28;20024;-73
2021/06/09 03:01:07;;;;;;;7.63;5.85;;;18.40;79.60;;;;;;5061734;28;20017;-73
2021/06/09 03:03:39;;;;;;;9.30;6.00;;;18.40;79.40;;;;;;5063081;28;20029;-73
2021/06/09 03:06:30;;;;;;;9.30;6.00;;;18.40;79.30;;;;;;5062051;28;20021;-73
2021/06/09 03:09:06;;;;;;;7.25;5.72;;;18.50;79.10;;;;;;5057997;28;20036;-73
2021/06/09 03:11:52;;;;;;;7.38;6.13;;;18.50;79.00;;;;;;5062860;28;20020;-72
2021/06/09 03:17:36;;;;;;;9.93;6.30;;;18.50;78.90;;;;;;5062671;28;20120;-73
2021/06/09 03:20:08;;;;;;;7.22;5.82;;;18.60;78.80;;;;;;5063688;28;20053;-73
2021/06/09 03:22:58;;;;;;;8.18;5.82;;;18.60;78.70;;;;;;5064666;28;20382;-73
2021/06/09 03:25:31;;;;;;;9.18;6.50;;;18.60;78.60;;;;;;5066185;28;20029;-73
2021/06/09 03:28:27;;;;;;;7.43;5.70;;;18.70;78.50;;;;;;5064982;28;20027;-73
2021/06/09 03:31:03;;;;;;;6.63;5.80;;;18.70;78.40;;;;;;5066649;28;20048;-73
2021/06/09 03:33:38;;;;;;;6.90;5.32;;;18.70;78.40;;;;;;5066460;28;20095;-73
2021/06/09 03:36:09;;;;;;;9.27;6.03;;;18.80;78.30;;;;;;5065582;28;20013;-73
2021/06/09 03:38:43;;;;;;;8.98;5.53;;;18.80;78.10;;;;;;5064500;28;20052;-73
2021/06/09 03:41:13;;;;;;;6.32;5.13;;;18.80;78.00;;;;;;5065187;28;20119;-74
2021/06/09 03:43:42;;;;;;;10.60;6.20;;;18.80;78.00;;;;;;5064758;28;20043;-74
2021/06/09 03:46:08;;;;;;;5.82;5.28;;;18.90;77.90;;;;;;5065069;28;20040;-73
2021/06/09 03:48:39;;;;;;;6.35;5.03;;;18.90;77.70;;;;;;5066466;28;20107;-73
2021/06/09 03:51:07;;;;;;;7.85;5.90;;;19.00;77.50;;;;;;5065826;28;20423;-73
2021/06/09 03:53:34;;;;;;;6.10;5.50;;;19.00;77.40;;;;;;5064168;28;20471;-73
2021/06/09 03:56:04;;;;;;;7.05;5.38;;;19.00;77.40;;;;;;5065505;28;20021;-75
2021/06/09 03:58:31;;;;;;;13.85;5.45;;;19.10;77.20;;;;;;5066104;28;20025;-73
2021/06/09 04:00:59;;;;;;;6.22;5.20;;;19.10;77.00;;;;;;5064189;28;20064;-72
2021/06/09 04:03:26;;;;;;;6.82;5.05;;;19.20;76.80;;;;;;5064917;28;20032;-73
2021/06/09 04:05:53;;;;;;;5.93;4.82;;;19.20;76.60;;;;;;5058685;28;20029;-72
2021/06/09 04:08:20;;;;;;;5.88;5.20;;;19.20;76.40;;;;;;5056266;28;20032;-72
2021/06/09 04:10:47;;;;;;;7.00;5.30;;;19.30;76.30;;;;;;5056285;28;20029;-74
2021/06/09 04:13:14;;;;;;;7.35;4.70;;;19.30;76.10;;;;;;5056082;28;20480;-74
2021/06/09 04:15:41;;;;;;;6.55;4.95;;;19.30;75.80;;;;;;5055722;28;20155;-74
2021/06/09 04:18:08;;;;;;;7.65;5.53;;;19.40;75.80;;;;;;5056022;28;20075;-74
2021/06/09 04:20:36;;;;;;;7.53;4.68;;;19.40;75.70;;;;;;5056246;28;20489;-74
2021/06/09 04:23:03;;;;;;;6.10;5.03;;;19.40;75.50;;;;;;5055774;28;20048;-74
2021/06/09 04:25:29;;;;;;;7.85;5.25;;;19.60;75.40;;;;;;5056034;28;20032;-73
2021/06/09 04:27:56;;;;;;;5.13;4.55;;;19.60;75.20;;;;;;5055799;28;20033;-73
2021/06/09 04:30:23;;;;;;;13.00;4.55;;;19.70;75.20;;;;;;5069965;28;20063;-73
2021/06/09 04:32:49;;;;;;;7.13;5.00;;;19.80;75.20;;;;;;5098736;28;20039;-74
2021/06/09 04:35:15;;;;;;;5.30;4.80;;;19.80;74.80;;;;;;5076361;28;20025;-73
2021/06/09 04:37:41;;;;;;;5.43;4.57;;;19.80;74.60;;;;;;5091109;28;20040;-73
2021/06/09 04:40:07;;;;;;;6.55;5.00;;;19.90;74.50;;;;;;5075646;28;20024;-74
2021/06/09 04:42:33;;;;;;;5.45;4.35;;;19.90;74.40;;;;;;5075415;28;20036;-75
2021/06/09 04:44:59;;;;;;;6.30;4.80;;;20.00;74.30;;;;;;5071898;28;20372;-73
2021/06/09 04:47:29;;;;;;;5.35;4.78;;;20.00;74.10;;;;;;5063980;28;20066;-73
2021/06/09 04:49:55;;;;;;;5.90;4.57;;;20.10;74.00;;;;;;5063323;28;20046;-74
2021/06/09 04:52:21;;;;;;;5.88;4.97;;;20.20;73.80;;;;;;5065547;28;20024;-73
2021/06/09 04:54:47;;;;;;;6.82;4.72;;;20.20;73.70;;;;;;5064854;28;20017;-73
2021/06/09 04:57:13;;;;;;;7.25;4.80;;;20.20;73.50;;;;;;5045819;28;20016;-74
2021/06/09 04:59:39;;;;;;;6.70;4.88;;;20.30;73.40;;;;;;5066437;28;20046;-74
2021/06/09 05:02:05;;;;;;;5.82;4.78;;;20.40;73.40;;;;;;5064598;28;20021;-73
2021/06/09 05:04:30;;;;;;;5.78;4.40;;;20.40;73.30;;;;;;5065288;28;20429;-74
2021/06/09 05:06:56;;;;;;;8.63;5.55;;;20.50;73.10;;;;;;5063519;28;20051;-74
2021/06/09 05:09:23;;;;;;;7.13;5.00;;;20.50;72.70;;;;;;5063345;28;20082;-74
2021/06/09 05:12:01;;;;;;;5.80;4.70;;;20.60;72.40;;;;;;5064668;28;20064;-73
2021/06/09 05:14:36;;;;;;;5.55;5.05;;;20.60;72.20;;;;;;5072348;28;20032;-73
2021/06/09 05:17:04;;;;;;;9.88;4.72;;;20.60;72.30;;;;;;5075015;28;20111;-73
2021/06/09 05:19:32;;;;;;;7.15;4.45;;;20.60;72.00;;;;;;5074790;28;20111;-72
2021/06/09 05:22:08;;;;;;;6.55;5.05;;;20.70;71.80;;;;;;5074768;28;20108;-73
2021/06/09 05:24:36;;;;;;;8.93;4.70;;;20.70;71.50;;;;;;5074425;28;20119;-71
2021/06/09 05:27:03;;;;;;;7.85;4.32;;;20.70;71.90;;;;;;5073185;28;20463;-73
2021/06/09 05:29:29;;;;;;;9.77;4.93;;;20.80;71.30;;;;;;5074511;28;20028;-74
2021/06/09 05:31:56;;;;;;;10.32;4.53;;;20.80;71.30;;;;;;5074284;28;20059;-73
2021/06/09 05:34:22;;;;;;;6.00;4.75;;;20.80;71.10;;;;;;5074946;28;20063;-73
2021/06/09 05:36:49;;;;;;;4.82;4.35;;;20.90;70.90;;;;;;5060001;28;20048;-73
2021/06/09 05:39:19;;;;;;;5.78;4.70;;;21.00;70.70;;;;;;5054847;28;20128;-73
2021/06/09 05:41:45;;;;;;;5.18;4.68;;;21.10;70.40;;;;;;5054123;28;20029;-74
2021/06/09 05:44:16;;;;;;;5.15;4.28;;;21.10;70.20;;;;;;5054130;28;20094;-73
2021/06/09 05:46:43;;;;;;;7.28;4.47;;;21.20;70.10;;;;;;5054483;28;20120;-73
2021/06/09 05:49:19;;;;;;;6.43;4.90;;;21.30;70.00;;;;;;5053979;28;20106;-73
2021/06/09 05:51:47;;;;;;;5.93;4.53;;;21.40;69.90;;;;;;5054571;28;20032;-73
2021/06/09 05:54:13;;;;;;;5.78;4.70;;;21.40;69.80;;;;;;5054201;28;20424;-74
2021/06/09 05:56:39;;;;;;;5.95;5.10;;;21.50;69.60;;;;;;5053941;28;20025;-74
2021/06/09 05:59:05;;;;;;;7.38;4.57;;;21.50;69.50;;;;;;5054084;28;20091;-74
2021/06/09 06:01:31;;;;;;;7.53;4.50;;;21.60;69.50;;;;;;5053836;28;20025;-74
2021/06/09 06:03:57;;;;;;;6.88;4.30;;;21.60;69.30;;;;;;5053834;28;20057;-74
2021/06/09 06:06:23;;;;;;;6.32;4.20;;;21.70;69.00;;;;;;5053778;28;20033;-74
2021/06/09 06:08:49;;;;;;;6.40;4.63;;;21.70;69.00;;;;;;5053609;28;20383;-75
2021/06/09 06:11:15;;;;;;;5.18;4.32;;;21.70;68.80;;;;;;5054042;28;20036;-73
2021/06/09 06:13:44;;;;;;;5.03;4.53;;;21.70;68.70;;;;;;5053877;28;20056;-73
2021/06/09 06:16:14;;;;;;;6.47;4.50;;;21.80;68.60;;;;;;5053691;28;20029;-73
2021/06/09 06:18:41;;;;;;;5.38;4.32;;;21.90;68.60;;;;;;5052458;28;20116;-73
2021/06/09 06:21:11;;;;;;;6.25;4.38;;;22.00;68.40;;;;;;5053573;28;20025;-73
2021/06/09 06:23:41;;;;;;;5.20;4.25;;;22.10;67.80;;;;;;5052431;28;20094;-74
2021/06/09 06:26:08;;;;;;;4.45;3.92;;;22.10;67.60;;;;;;5053581;28;20037;-73
2021/06/09 06:28:34;;;;;;;6.07;4.20;;;22.20;67.60;;;;;;5053611;28;20042;-72
2021/06/09 06:31:01;;;;;;;6.82;4.57;;;22.30;67.40;;;;;;5053154;28;20104;-73
2021/06/09 06:33:28;;;;;;;4.60;4.15;;;22.40;67.20;;;;;;5053459;28;20029;-73
2021/06/09 06:35:57;;;;;;;4.93;4.20;;;22.50;66.90;;;;;;5052059;28;20025;-73
2021/06/09 06:38:23;;;;;;;7.10;3.72;;;22.50;66.50;;;;;;5053389;28;20025;-73
2021/06/09 06:40:50;;;;;;;5.25;3.90;;;22.60;66.40;;;;;;5052825;28;20475;-71
2021/06/09 06:43:17;;;;;;;3.95;3.65;;;22.70;66.10;;;;;;5052953;28;20028;-72
2021/06/09 06:45:43;;;;;;;4.80;4.30;;;22.70;65.80;;;;;;5053150;28;20080;-72
2021/06/09 06:48:09;;;;;;;5.63;4.28;;;22.80;65.60;;;;;;5053278;28;20060;-74
2021/06/09 06:50:37;;;;;;;4.65;4.25;;;22.80;65.40;;;;;;5053226;28;20383;-74
2021/06/09 06:53:07;;;;;;;5.13;4.18;;;22.80;65.10;;;;;;5053041;28;20530;-74
2021/06/09 06:55:33;;;;;;;5.50;3.67;;;22.80;64.90;;;;;;5052312;28;20024;-74
2021/06/09 06:58:00;;;;;;;6.80;3.92;;;22.90;64.70;;;;;;5053208;28;20032;-74
2021/06/09 07:00:26;;;;;;;5.30;3.95;;;22.90;64.40;;;;;;5052662;28;20025;-74
2021/06/09 07:02:57;;;;;;;4.97;3.83;;;22.90;64.40;;;;;;5053051;28;20124;-78
2021/06/09 07:05:26;;;;;;;4.90;3.92;;;23.00;64.10;;;;;;5055921;28;20166;-73
2021/06/09 07:07:54;;;;;;;4.32;3.90;;;23.10;64.00;;;;;;5060326;28;20031;-74
2021/06/09 07:10:21;;;;;;;4.28;3.30;;;23.20;64.00;;;;;;5062632;28;20047;-73
2021/06/09 07:12:49;;;;;;;6.85;3.47;;;23.20;63.60;;;;;;5061564;28;20027;-73
2021/06/09 07:15:18;;;;;;;5.22;3.20;;;23.30;63.20;;;;;;5060994;28;20074;-73
2021/06/09 07:17:52;;;;;;;3.35;3.08;;;23.30;62.90;;;;;;5061409;28;20493;-73
2021/06/09 07:20:21;;;;;;;3.97;3.53;;;23.40;62.60;;;;;;5061568;28;20414;-73
2021/06/09 07:22:47;;;;;;;6.00;3.33;;;23.50;62.50;;;;;;5060431;28;20045;-73
2021/06/09 07:25:13;;;;;;;4.40;3.85;;;23.50;62.40;;;;;;5062498;28;20028;-73
2021/06/09 07:27:43;;;;;;;12.70;3.95;;;23.60;62.40;;;;;;5061602;28;20486;-73
2021/06/09 07:30:11;;;;;;;3.90;3.53;;;23.70;62.10;;;;;;5059922;28;20483;-73
2021/06/09 07:32:41;;;;;;;5.07;3.45;;;23.70;61.60;;;;;;5054792;28;20029;-73
2021/06/09 07:35:08;;;;;;;4.30;3.30;;;23.70;61.30;;;;;;5053066;28;20025;-72
2021/06/09 07:37:42;;;;;;;4.45;3.17;;;23.80;61.30;;;;;;5052454;28;20559;-73
2021/06/09 07:40:12;;;;;;;3.22;3.03;;;23.80;61.20;;;;;;5052743;28;20021;-73
2021/06/09 07:42:40;;;;;;;4.43;3.40;;;23.90;61.30;;;;;;5080332;28;20033;-73
2021/06/09 07:45:10;;;;;;;3.65;3.13;;;23.90;61.20;;;;;;5072400;28;20421;-73
2021/06/09 07:47:40;;;;;;;3.47;3.17;;;24.00;61.10;;;;;;5079617;28;20078;-75
2021/06/09 07:50:08;;;;;;;3.40;3.10;;;24.10;60.80;;;;;;5092909;28;20150;-74
2021/06/09 07:52:37;;;;;;;5.93;3.00;;;24.20;60.60;;;;;;5092668;28;20051;-75
2021/06/09 07:55:04;;;;;;;8.05;3.28;;;24.20;60.60;;;;;;5092892;28;20118;-75
2021/06/09 07:57:33;;;;;;;4.18;3.20;;;24.30;60.00;;;;;;5092869;28;20027;-73
2021/06/09 08:00:01;;;;;;;4.18;3.60;;;24.40;60.00;;;;;;5108563;28;20028;-74
2021/06/09 08:02:27;;;;;;;4.80;3.33;;;24.40;59.80;;;;;;5092972;28;20149;-73
2021/06/09 08:04:53;;;;;;;3.42;3.13;;;24.50;59.80;;;;;;5093054;28;20099;-75
2021/06/09 08:07:19;;;;;;;3.95;3.55;;;24.50;59.50;;;;;;5096043;28;20025;-74
2021/06/09 08:09:45;;;;;;;4.45;3.30;;;24.60;59.70;;;;;;5096512;28;20030;-75
2021/06/09 08:12:11;;;;;;;4.10;3.30;;;24.70;59.40;;;;;;5096311;28;20032;-74
2021/06/09 08:14:38;;;;;;;4.18;3.13;;;24.90;59.20;;;;;;5094945;28;20065;-74
2021/06/09 08:17:06;;;;;;;3.88;3.30;;;25.10;58.70;;;;;;5096252;28;20107;-74
2021/06/09 08:19:32;;;;;;;3.88;3.05;;;25.20;58.20;;;;;;5096446;28;20106;-73
2021/06/09 08:21:58;;;;;;;3.60;3.30;;;25.30;57.80;;;;;;5080275;28;20059;-74
2021/06/09 08:24:24;;;;;;;3.22;3.00;;;25.40;57.70;;;;;;5075672;28;20060;-74
2021/06/09 08:26:50;;;;;;;3.60;3.05;;;25.50;57.60;;;;;;5075748;28;20024;-73
2021/06/09 08:29:15;;;;;;;3.15;2.95;;;25.70;57.30;;;;;;5075359;28;20493;-74
2021/06/09 08:31:41;;;;;;;3.17;2.90;;;25.80;57.20;;;;;;5076046;28;20032;-74
2021/06/09 08:34:07;;;;;;;3.45;3.15;;;26.00;56.80;;;;;;5090698;28;20036;-74
2021/06/09 08:36:35;;;;;;;5.82;3.45;;;26.20;56.40;;;;;;5096048;28;20092;-74
2021/06/09 08:39:02;;;;;;;3.38;3.10;;;26.30;56.50;;;;;;5082604;28;20453;-74
2021/06/09 08:41:31;;;;;;;5.10;3.05;;;26.60;56.20;;;;;;5095624;28;20355;-74
2021/06/09 08:44:00;;;;;;;3.78;2.92;;;26.80;56.00;;;;;;5091119;28;20037;-74
2021/06/09 08:46:27;;;;;;;3.08;2.75;;;27.10;56.10;;;;;;5075919;28;20067;-74
2021/06/09 08:48:56;;;;;;;3.17;2.90;;;27.30;54.80;;;;;;5075502;28;20028;-74
2021/06/09 08:51:22;;;;;;;4.13;2.83;;;27.50;54.40;;;;;;5072542;28;20028;-74
2021/06/09 08:53:50;;;;;;;3.67;2.90;;;27.80;54.10;;;;;;5075607;28;20031;-74
2021/06/09 08:56:18;;;;;;;3.40;2.60;;;28.00;53.60;;;;;;5070285;28;20028;-74
2021/06/09 08:58:44;;;;;;;3.78;3.10;;;28.20;53.20;;;;;;5068734;28;20107;-74
2021/06/09 09:01:12;;;;;;;3.28;2.85;;;28.50;52.70;;;;;;5093061;28;20103;-74
2021/06/09 09:03:43;;;;;;;3.50;2.72;;;28.80;52.40;;;;;;5082443;28;20045;-74
2021/06/09 09:06:08;;;;;;;3.17;2.88;;;29.20;51.70;;;;;;5062932;28;20033;-74
2021/06/09 09:08:34;;;;;;;4.03;2.97;;;29.50;51.40;;;;;;5063220;28;20024;-73
2021/06/09 09:11:00;;;;;;;2.92;2.72;;;29.80;51.00;;;;;;5064504;28;20033;-74
2021/06/09 09:13:27;;;;;;;2.60;2.40;;;30.00;50.50;;;;;;5073451;28;20027;-74
2021/06/09 09:15:53;;;;;;;3.15;2.80;;;30.40;49.80;;;;;;5063336;28;20107;-74
2021/06/09 09:18:19;;;;;;;2.75;2.55;;;30.70;49.40;;;;;;5059588;28;20107;-73
2021/06/09 09:20:48;;;;;;;3.00;2.67;;;31.00;48.70;;;;;;5055075;28;20028;-74
2021/06/09 09:23:22;;;;;;;4.40;2.53;;;31.30;47.80;;;;;;5054517;28;20060;-73
2021/06/09 09:25:52;;;;;;;3.70;2.50;;;31.60;47.00;;;;;;5055172;28;20032;-75
2021/06/09 09:28:30;;;;;;;2.42;2.33;;;31.90;46.80;;;;;;5054638;28;20040;-73
2021/06/09 09:31:13;;;;;;;2.85;2.28;;;32.20;46.50;;;;;;5054615;28;20021;-74
2021/06/09 09:33:39;;;;;;;2.60;2.40;;;32.60;46.20;;;;;;5054556;28;20032;-74
2021/06/09 09:36:28;;;;;;;2.42;2.33;;;32.90;45.50;;;;;;5054581;28;20467;-74
2021/06/09 09:38:55;;;;;;;3.08;2.30;;;33.30;45.40;;;;;;5053709;28;20528;-73
2021/06/09 09:41:26;;;;;;;2.30;2.20;;;33.80;45.00;;;;;;5054293;28;20025;-73
2021/06/09 09:44:08;;;;;;;2.90;2.40;;;34.20;44.20;;;;;;5054187;28;20069;-73
2021/06/09 09:46:38;;;;;;;2.97;2.60;;;34.90;43.50;;;;;;5054057;28;20049;-73
2021/06/09 09:49:06;;;;;;;3.63;2.30;;;35.40;43.20;;;;;;5053981;28;20057;-75
2021/06/09 09:51:55;;;;;;;4.20;2.40;;;36.00;42.70;;;;;;5053048;28;20036;-75
2021/06/09 09:54:29;;;;;;;2.72;2.28;;;36.70;41.90;;;;;;5054184;28;20035;-73
2021/06/09 09:56:56;;;;;;;2.85;2.15;;;37.40;41.20;;;;;;5054137;28;20039;-73
2021/06/09 09:59:28;;;;;;;2.10;2.00;;;38.00;40.70;;;;;;5053974;28;20565;-75
2021/06/09 10:01:56;;;;;;;2.53;2.30;;;38.50;39.90;;;;;;5052516;28;20021;-75
2021/06/09 10:04:32;;;;;;;4.40;2.08;;;39.10;39.20;;;;;;5053926;28;20045;-74
2021/06/09 10:06:58;;;;;;;2.35;2.20;;;39.70;38.60;;;;;;5053809;28;20506;-74
2021/06/09 10:09:50;;;;;;;2.83;2.10;;;40.10;37.90;;;;;;5053870;28;20029;-74
2021/06/09 10:12:17;;;;;;;2.17;1.98;;;40.50;37.20;;;;;;5051185;28;20112;-74
2021/06/09 10:14:49;;;;;;;1.90;1.65;;;40.80;36.80;;;;;;5053741;28;20086;-74
2021/06/09 10:17:17;;;;;;;;;;;41.10;36.40;;;;;;5060445;28;20063;-75
2021/06/09 10:19:48;;;;;;;1.95;1.85;;;41.50;37.80;;;;;;5076945;28;19953;-75
2021/06/09 10:22:18;;;;;;;2.35;1.95;;;41.90;35.80;;;;;;5075912;28;20029;-73
2021/06/09 10:24:44;;;;;;;2.00;1.70;;;42.20;35.30;;;;;;5073923;28;20032;-74
2021/06/09 10:27:17;;;;;;;1.70;1.60;;;42.30;35.00;;;;;;5072320;28;20381;-74
2021/06/09 10:29:43;;;;;;;2.53;1.95;;;42.50;34.20;;;;;;5072817;28;20055;-74
2021/06/09 10:32:18;;;;;;;2.08;1.88;;;42.70;34.20;;;;;;5085880;28;20028;-75
2021/06/09 10:34:46;;;;;;;2.50;2.08;;;43.00;34.00;;;;;;5093562;28;20032;-74
2021/06/09 10:37:12;;;;;;;2.70;2.50;;;43.10;33.80;;;;;;5109584;28;20436;-75
2021/06/09 10:39:40;;;;;;;2.10;1.90;;;43.20;33.80;;;;;;5084258;28;20024;-75
2021/06/09 10:42:08;;;;;;;3.60;2.50;;;43.40;33.50;;;;;;5086482;28;20420;-75
2021/06/09 10:44:39;;;;;;;3.03;2.03;;;43.40;33.50;;;;;;5088931;28;20090;-75
2021/06/09 10:47:09;;;;;;;2.60;2.20;;;43.50;33.50;;;;;;5073824;28;20111;-74
2021/06/09 10:49:38;;;;;;;2.15;2.00;;;43.70;33.10;;;;;;5073146;28;20029;-74
2021/06/09 10:52:05;;;;;;;2.05;1.95;;;43.80;33.00;;;;;;5088823;28;20052;-76
2021/06/09 10:54:31;;;;;;;2.05;1.80;;;44.10;32.70;;;;;;5073265;28;20032;-75
2021/06/09 10:56:58;;;;;;;3.03;2.28;;;44.20;32.60;;;;;;5072828;28;20540;-74
2021/06/09 10:59:26;;;;;;;2.20;2.10;;;44.40;32.50;;;;;;5073318;28;20025;-75
2021/06/09 11:02:01;;;;;;;2.50;2.30;;;44.70;32.40;;;;;;5073313;28;20028;-74
2021/06/09 11:04:32;;;;;;;2.40;2.05;;;44.90;32.20;;;;;;5072973;28;20032;-74
2021/06/09 11:06:57;;;;;;;2.05;1.95;;;45.10;32.30;;;;;;5074151;28;20425;-75
2021/06/09 11:09:26;;;;;;;2.33;2.08;;;45.30;32.00;;;;;;5093467;28;20481;-74
2021/06/09 11:12:13;;;;;;;2.00;1.90;;;45.30;31.70;;;;;;5087782;28;20038;-75
2021/06/09 11:14:52;;;;;;;2.08;1.88;;;45.10;31.50;;;;;;5065423;28;20021;-75
2021/06/09 11:17:52;;;;;;;4.97;2.03;;;45.00;31.80;;;;;;5068318;28;20098;-76
2021/06/09 11:20:21;;;;;;;2.75;2.20;;;44.90;32.00;;;;;;5051620;28;20036;-76
2021/06/09 11:22:54;;;;;;;4.63;2.30;;;45.10;32.00;;;;;;5061220;28;20063;-75
2021/06/09 11:25:42;;;;;;;5.15;2.30;;;44.50;31.90;;;;;;5060570;28;20072;-76
2021/06/09 11:28:13;;;;;;;7.07;2.53;;;42.90;32.40;;;;;;5061779;28;20028;-75
2021/06/09 11:30:43;;;;;;;2.72;2.53;;;41.60;33.50;;;;;;5059322;28;20487;-75
2021/06/09 11:33:27;;;;;;;2.13;1.80;;;41.70;33.80;;;;;;5061432;28;20107;-76
2021/06/09 11:35:57;;;;;;;2.95;1.80;;;42.10;33.40;;;;;;5062421;28;20358;-76
2021/06/09 11:38:24;;;;;;;2.40;1.60;;;42.90;32.70;;;;;;5057543;28;20487;-76
2021/06/09 11:40:52;;;;;;;1.60;1.40;;;43.50;31.60;;;;;;5063323;28;20029;-75
2021/06/09 11:43:23;;;;;;;2.33;1.77;;;43.90;30.90;;;;;;5066483;28;20111;-75
2021/06/09 11:46:00;;;;;;;2.00;1.90;;;44.40;31.00;;;;;;5065656;28;20044;-75
2021/06/09 11:48:28;;;;;;;2.63;2.45;;;44.80;31.10;;;;;;5067054;28;20103;-75
2021/06/09 11:50:57;;;;;;;2.13;2.03;;;44.90;31.30;;;;;;5064568;28;20023;-77
2021/06/09 11:53:45;;;;;;;3.28;2.20;;;44.70;31.30;;;;;;5073802;28;20031;-75
2021/06/09 11:56:28;;;;;;;2.08;1.88;;;44.40;31.60;;;;;;5068951;28;20083;-84
2021/06/09 11:59:06;;;;;;;2.20;2.10;;;44.60;31.70;;;;;;5066034;28;20060;-84
2021/06/09 12:01:46;;;;;;;2.50;2.30;;;44.90;31.80;;;;;;5055682;28;20393;-82
2021/06/09 12:04:19;;;;;;;4.63;2.30;;;45.30;31.70;;;;;;5057072;28;20037;-81
2021/06/09 12:06:47;;;;;;;2.22;2.03;;;45.50;31.50;;;;;;5056748;28;20025;-82
2021/06/09 12:09:14;;;;;;;2.60;2.40;;;45.70;31.50;;;;;;5056811;28;20021;-82
2021/06/09 12:11:42;;;;;;;3.35;2.05;;;45.80;31.40;;;;;;5056556;28;20021;-76
2021/06/09 12:14:21;;;;;;;2.00;1.90;;;45.80;31.10;;;;;;5056306;28;20048;-75
2021/06/09 12:16:47;;;;;;;2.60;2.25;;;46.00;31.00;;;;;;5056969;28;20053;-74
2021/06/09 12:19:31;;;;;;;2.60;2.40;;;45.90;31.30;;;;;;5055973;28;20502;-83
2021/06/09 12:22:00;;;;;;;4.03;2.40;;;46.00;31.20;;;;;;5056459;28;20385;-82
2021/06/09 12:24:26;;;;;;;2.10;2.00;;;46.10;30.90;;;;;;5056081;28;20069;-75
2021/06/09 12:27:13;;;;;;;2.60;2.40;;;46.10;30.80;;;;;;5055644;28;20064;-75
2021/06/09 12:29:42;;;;;;;2.45;2.35;;;46.20;30.80;;;;;;5057399;28;20115;-76
2021/06/09 12:32:35;;;;;;;2.33;2.10;;;46.30;30.90;;;;;;5062436;28;20047;-75
2021/06/09 12:35:07;;;;;;;2.28;2.08;;;46.50;30.50;;;;;;5063220;28;20041;-75
2021/06/09 12:37:38;;;;;;;2.33;2.13;;;46.60;30.10;;;;;;5063399;28;20025;-76
2021/06/09 12:40:14;;;;;;;2.40;2.20;;;46.70;30.10;;;;;;5063767;28;20027;-76
2021/06/09 12:42:49;;;;;;;2.60;1.90;;;46.70;30.00;;;;;;5063822;28;20025;-76
2021/06/09 12:45:15;;;;;;;2.30;2.10;;;46.80;29.80;;;;;;5060059;28;20055;-76
2021/06/09 12:47:43;;;;;;;2.15;2.05;;;46.70;29.80;;;;;;5055258;28;20060;-76
2021/06/09 12:50:14;;;;;;;1.95;1.85;;;46.70;29.90;;;;;;5057165;28;20063;-76
2021/06/09 12:52:41;;;;;;;3.30;2.05;;;46.70;30.00;;;;;;5059853;28;20497;-76
2021/06/09 12:55:09;;;;;;;1.90;1.80;;;46.50;30.20;;;;;;5062804;28;20082;-77
2021/06/09 12:57:36;;;;;;;3.47;1.67;;;46.40;30.10;;;;;;5063733;28;20029;-76
2021/06/09 13:00:22;;;;;;;1.58;1.48;;;46.00;29.90;;;;;;5082828;28;20024;-75
2021/06/09 13:02:49;;;;;;;2.55;1.73;;;45.10;29.90;;;;;;5063455;28;20086;-76